Time;durP1;ratioP1;P1;durP2;ratioP2;P2;SDS_P1;SDS_P2;PMS_P1;PMS_P2;Temp;Humidity;BMP_temperature;BMP_pressure;BME280_temperature;BME280_humidity;BME280_pressure;Samples;Min_cycle;Max_cycle;Signal;HPM_P1;HPM_P2
2023/04/15 00:00:16;;;;;;;5.43;4.67;;;4.60;99.90;;;;;;4923056;29;20189;-86
2023/04/15 00:02:43;;;;;;;5.20;4.70;;;4.70;99.90;;;;;;4922271;29;20183;-86
2023/04/15 00:05:16;;;;;;;6.80;5.10;;;4.80;99.90;;;;;;4922102;29;20264;-86
2023/04/15 00:07:42;;;;;;;5.60;5.10;;;4.80;99.90;;;;;;4922500;29;20205;-86
2023/04/15 00:10:08;;;;;;;4.93;4.40;;;4.80;99.90;;;;;;4922568;29;20174;-86
2023/04/15 00:12:33;;;;;;;4.90;4.50;;;4.80;99.90;;;;;;4922451;29;20183;-86
2023/04/15 00:14:59;;;;;;;5.03;4.47;;;4.90;99.90;;;;;;4922315;29;20201;-86
2023/04/15 00:17:24;;;;;;;5.70;4.67;;;4.90;99.90;;;;;;4922131;29;20265;-86
2023/04/15 00:19:50;;;;;;;5.30;4.90;;;4.80;99.90;;;;;;4922399;29;20245;-86
2023/04/15 00:22:16;;;;;;;5.20;4.70;;;4.80;99.90;;;;;;4921986;29;20234;-86
2023/04/15 00:24:42;;;;;;;5.27;4.83;;;4.80;99.90;;;;;;4922931;29;20276;-86
2023/04/15 00:27:08;;;;;;;5.00;4.60;;;4.90;99.90;;;;;;4921977;29;20214;-86
2023/04/15 00:29:34;;;;;;;5.47;4.83;;;4.90;99.90;;;;;;4922244;29;20182;-86
2023/04/15 00:32:00;;;;;;;5.75;5.18;;;4.90;99.90;;;;;;4922102;29;20265;-86
2023/04/15 00:34:26;;;;;;;5.80;5.22;;;5.00;99.90;;;;;;4922017;29;20245;-86
2023/04/15 00:36:52;;;;;;;6.10;5.60;;;4.90;99.90;;;;;;4922749;29;20217;-86
2023/04/15 00:39:18;;;;;;;6.03;5.03;;;5.00;99.90;;;;;;4922451;29;20186;-86
2023/04/15 00:41:45;;;;;;;5.88;5.25;;;5.00;99.90;;;;;;4921074;29;20193;-86
2023/04/15 00:44:11;;;;;;;7.10;5.40;;;4.80;99.90;;;;;;4922059;29;20206;-86
2023/04/15 00:46:38;;;;;;;5.80;5.23;;;4.60;99.90;;;;;;4922215;29;20218;-86
2023/04/15 00:49:05;;;;;;;6.80;6.20;;;4.60;99.90;;;;;;4921759;29;20671;-86
2023/04/15 00:51:32;;;;;;;6.67;5.43;;;4.60;99.90;;;;;;4921480;29;20178;-86
2023/04/15 00:54:03;;;;;;;6.40;5.50;;;4.60;99.90;;;;;;4922050;29;20201;-86
2023/04/15 00:56:29;;;;;;;6.43;5.40;;;4.70;99.90;;;;;;4921238;29;20205;-86
2023/04/15 00:58:55;;;;;;;5.80;5.30;;;4.80;99.90;;;;;;4921634;29;20246;-86
2023/04/15 01:27:45;;;;;;;5.72;5.00;;;5.10;99.90;;;;;;4860675;29;20304;-73
2023/04/15 01:37:22;;;;;;;;;;;;;;;;;;;;;
2023/04/15 01:46:18;;;;;;;7.13;5.13;;;5.40;99.90;;;;;;5135078;23;20256;-86
2023/04/15 01:48:43;;;;;;;6.00;5.32;;;5.50;99.90;;;;;;4901618;29;20195;-86
2023/04/15 01:51:09;;;;;;;8.15;5.63;;;5.40;99.90;;;;;;4901686;29;20234;-86
2023/04/15 01:53:34;;;;;;;6.50;5.00;;;5.50;99.90;;;;;;4901899;29;20230;-86
2023/04/15 01:56:00;;;;;;;5.72;4.97;;;5.40;99.90;;;;;;4901330;29;20211;-86
2023/04/15 01:58:26;;;;;;;6.70;5.30;;;5.30;99.90;;;;;;4901303;29;20193;-86
2023/04/15 02:00:51;;;;;;;5.50;4.90;;;5.30;99.90;;;;;;4901627;29;20194;-86
2023/04/15 02:03:17;;;;;;;6.35;5.53;;;5.40;99.90;;;;;;4901309;29;20198;-86
2023/04/15 02:05:43;;;;;;;5.40;4.90;;;5.40;99.90;;;;;;4901154;29;20576;-86
2023/04/15 02:08:09;;;;;;;5.05;4.65;;;5.40;99.90;;;;;;4901102;29;20265;-86
2023/04/15 02:10:34;;;;;;;5.38;4.88;;;5.50;99.90;;;;;;4918391;29;20645;-86
2023/04/15 02:13:00;;;;;;;5.30;4.90;;;5.50;99.90;;;;;;4901392;29;20261;-86
2023/04/15 02:15:26;;;;;;;6.32;5.35;;;5.60;99.90;;;;;;4901239;29;20202;-86
2023/04/15 02:17:54;;;;;;;7.25;5.95;;;5.50;99.90;;;;;;4901206;29;20186;-86
2023/04/15 02:20:20;;;;;;;5.55;5.05;;;5.60;99.90;;;;;;4901043;29;20186;-86
2023/04/15 02:22:47;;;;;;;6.03;5.13;;;5.50;99.90;;;;;;4901249;29;20218;-86
2023/04/15 02:25:12;;;;;;;5.80;4.93;;;5.60;99.90;;;;;;4900930;29;20225;-86
2023/04/15 02:27:38;;;;;;;7.38;4.90;;;5.70;99.90;;;;;;4918573;29;20246;-86
2023/04/15 02:30:06;;;;;;;5.55;5.05;;;5.70;99.90;;;;;;4900947;29;20187;-86
2023/04/15 02:32:32;;;;;;;6.25;5.50;;;5.60;99.90;;;;;;4900800;29;20202;-86
2023/04/15 02:35:02;;;;;;;5.82;5.25;;;5.60;99.90;;;;;;4900843;29;20217;-86
2023/04/15 02:37:29;;;;;;;5.43;4.93;;;5.70;99.90;;;;;;4900671;29;20670;-86
2023/04/15 02:39:55;;;;;;;7.65;6.07;;;5.60;99.90;;;;;;4900684;29;20183;-86
2023/04/15 02:42:21;;;;;;;6.32;5.78;;;5.60;99.90;;;;;;4900984;29;20203;-86
2023/04/15 02:44:46;;;;;;;5.88;5.38;;;5.50;99.90;;;;;;4917882;29;20187;-86
2023/04/15 02:47:13;;;;;;;6.60;5.40;;;5.50;99.90;;;;;;4900691;29;20225;-86
2023/04/15 02:49:39;;;;;;;6.72;6.13;;;5.50;99.90;;;;;;4900551;29;20303;-87
2023/04/15 02:52:05;;;;;;;5.97;5.47;;;5.60;99.90;;;;;;4900644;29;20305;-86
2023/04/15 02:54:32;;;;;;;6.03;5.43;;;5.50;99.90;;;;;;4900837;29;20175;-86
2023/04/15 02:56:58;;;;;;;8.10;5.35;;;5.60;99.90;;;;;;4900422;29;20293;-86
2023/04/15 02:59:24;;;;;;;6.00;5.50;;;5.60;99.90;;;;;;4900356;29;20313;-86
2023/04/15 03:01:50;;;;;;;6.90;6.20;;;5.60;99.90;;;;;;4900605;29;20194;-86
2023/04/15 03:04:15;;;;;;;6.47;5.88;;;5.60;99.90;;;;;;4899764;29;20191;-86
2023/04/15 03:06:41;;;;;;;7.90;5.30;;;5.50;99.90;;;;;;4900150;29;20301;-86
2023/04/15 03:09:07;;;;;;;5.82;5.32;;;5.50;99.90;;;;;;4900587;29;20187;-86
2023/04/15 03:11:34;;;;;;;6.45;5.85;;;5.50;99.90;;;;;;4900160;29;20210;-86
2023/04/15 03:13:59;;;;;;;6.82;5.72;;;5.40;99.90;;;;;;4900261;29;20190;-86
2023/04/15 03:16:25;;;;;;;6.70;5.60;;;5.40;99.90;;;;;;4900260;29;20210;-86
2023/04/15 03:18:50;;;;;;;6.20;5.70;;;5.50;99.90;;;;;;4900272;29;20214;-86
2023/04/15 03:21:16;;;;;;;7.18;5.47;;;5.40;99.90;;;;;;4901291;29;20193;-86
2023/04/15 03:23:42;;;;;;;6.17;5.53;;;5.40;99.90;;;;;;4900564;29;20183;-86
2023/04/15 03:26:08;;;;;;;9.50;6.43;;;5.40;99.90;;;;;;4900652;29;20258;-86
2023/04/15 03:28:33;;;;;;;7.72;5.70;;;5.30;99.90;;;;;;4900206;29;20271;-86
2023/04/15 03:30:59;;;;;;;6.47;5.88;;;5.30;99.90;;;;;;4900205;29;20563;-86
2023/04/15 03:33:25;;;;;;;6.70;6.10;;;5.40;99.90;;;;;;4917127;29;20178;-86
2023/04/15 03:35:52;;;;;;;5.97;5.38;;;5.40;99.90;;;;;;4901188;29;20226;-86
2023/04/15 03:38:17;;;;;;;7.50;5.65;;;5.40;99.90;;;;;;4900867;29;20182;-86
2023/04/15 03:40:45;;;;;;;6.50;5.90;;;5.50;99.90;;;;;;4900839;29;20254;-86
2023/04/15 03:43:11;;;;;;;7.00;6.30;;;5.50;99.90;;;;;;4916960;29;20185;-86
2023/04/15 03:45:36;;;;;;;6.72;5.65;;;5.50;99.90;;;;;;4899865;29;20199;-86
2023/04/15 03:48:02;;;;;;;6.57;5.97;;;5.50;99.90;;;;;;4899902;29;20226;-86
2023/04/15 03:50:28;;;;;;;9.23;6.10;;;5.50;99.90;;;;;;4916902;29;20713;-86
2023/04/15 03:52:53;;;;;;;7.93;5.97;;;5.40;99.90;;;;;;4899918;29;20183;-86
2023/04/15 03:55:19;;;;;;;6.32;5.72;;;5.30;99.90;;;;;;4900438;29;20183;-86
2023/04/15 03:57:45;;;;;;;7.65;6.85;;;5.40;99.90;;;;;;4916696;29;20193;-86
2023/04/15 04:00:11;;;;;;;7.47;6.43;;;5.30;99.90;;;;;;4900723;29;20187;-87
2023/04/15 04:02:37;;;;;;;6.88;6.28;;;5.20;99.90;;;;;;4917341;29;20209;-87
2023/04/15 04:05:03;;;;;;;12.48;6.63;;;5.20;99.90;;;;;;4899714;29;20214;-87
2023/04/15 04:07:29;;;;;;;13.73;6.73;;;5.00;99.90;;;;;;4899641;29;20215;-86
2023/04/15 04:09:56;;;;;;;19.27;6.53;;;4.90;99.90;;;;;;4900566;29;20231;-86
2023/04/15 04:12:22;;;;;;;19.05;6.72;;;4.90;99.90;;;;;;4899809;29;20183;-86
2023/04/15 04:14:47;;;;;;;21.97;7.07;;;4.90;99.90;;;;;;4899716;29;20214;-86
2023/04/15 04:17:13;;;;;;;10.63;6.87;;;4.90;99.90;;;;;;4903215;29;20202;-86
2023/04/15 04:19:38;;;;;;;10.80;6.80;;;4.90;99.90;;;;;;4903588;29;20191;-86
2023/04/15 04:22:04;;;;;;;8.70;6.50;;;4.90;99.90;;;;;;4903137;29;20194;-86
2023/04/15 04:24:30;;;;;;;8.18;6.28;;;5.00;99.90;;;;;;4903083;29;20599;-86
2023/04/15 04:26:56;;;;;;;8.30;6.33;;;5.00;99.90;;;;;;4919947;29;20238;-86
2023/04/15 04:29:22;;;;;;;10.47;6.13;;;5.00;99.90;;;;;;4903309;29;20187;-86
2023/04/15 04:31:48;;;;;;;9.20;5.80;;;5.00;99.90;;;;;;4919983;29;20191;-86
2023/04/15 04:34:14;;;;;;;12.10;6.40;;;5.20;99.90;;;;;;4903369;29;20187;-86
2023/04/15 04:36:40;;;;;;;6.82;5.32;;;5.30;99.90;;;;;;4919999;29;20210;-86
2023/04/15 04:39:06;;;;;;;7.28;5.90;;;5.40;99.90;;;;;;4902865;29;20186;-86
2023/04/15 04:41:31;;;;;;;7.80;5.93;;;5.50;99.90;;;;;;4902932;29;20238;-86
2023/04/15 04:43:57;;;;;;;5.90;5.40;;;5.20;99.90;;;;;;4903652;29;20211;-86
2023/04/15 04:46:22;;;;;;;7.00;5.40;;;5.10;99.90;;;;;;4902693;29;20222;-86
2023/04/15 04:48:48;;;;;;;5.70;5.07;;;5.30;99.90;;;;;;4902663;29;20179;-86
2023/04/15 04:51:14;;;;;;;5.95;5.45;;;5.40;99.90;;;;;;4919929;29;20179;-86
2023/04/15 04:53:41;;;;;;;6.68;5.47;;;5.50;99.90;;;;;;4902634;29;20269;-86
2023/04/15 04:56:07;;;;;;;6.32;5.45;;;5.60;99.90;;;;;;4902461;29;20214;-86
2023/04/15 04:58:37;;;;;;;6.05;5.40;;;5.70;99.90;;;;;;4902739;29;20278;-86
2023/04/15 05:01:02;;;;;;;5.70;4.80;;;5.60;99.90;;;;;;4902834;29;20230;-86
2023/04/15 05:03:28;;;;;;;6.55;4.80;;;5.70;99.90;;;;;;4902674;29;20179;-86
2023/04/15 05:05:54;;;;;;;6.90;5.28;;;5.80;99.90;;;;;;4902554;29;20293;-86
2023/04/15 05:08:19;;;;;;;7.35;6.35;;;5.80;99.90;;;;;;4902696;29;20219;-86
2023/04/15 05:10:45;;;;;;;6.03;5.50;;;5.90;99.90;;;;;;4919591;29;20186;-86
2023/04/15 05:13:11;;;;;;;13.82;5.38;;;5.90;99.90;;;;;;4902264;29;20186;-86
2023/04/15 05:15:38;;;;;;;9.10;5.65;;;5.90;99.90;;;;;;4919260;29;20334;-87
2023/04/15 05:18:04;;;;;;;10.75;5.60;;;6.00;99.90;;;;;;4902430;29;20186;-87
2023/04/15 05:20:30;;;;;;;11.77;6.00;;;6.10;99.90;;;;;;4919371;29;20195;-86
2023/04/15 05:22:55;;;;;;;7.45;6.72;;;6.10;99.90;;;;;;4902373;29;20183;-86
2023/04/15 05:25:21;;;;;;;7.25;6.55;;;6.20;99.90;;;;;;4902854;29;20198;-86
2023/04/15 05:27:46;;;;;;;7.15;6.45;;;6.20;99.90;;;;;;4901660;29;20278;-86
2023/04/15 05:30:12;;;;;;;7.65;6.95;;;6.20;99.90;;;;;;4902242;29;20267;-87
2023/04/15 05:32:37;;;;;;;6.68;6.07;;;6.30;99.90;;;;;;4902218;29;20187;-86
2023/04/15 05:35:03;;;;;;;8.38;6.30;;;6.30;99.90;;;;;;4901860;29;20183;-86
2023/04/15 05:37:29;;;;;;;6.93;6.32;;;6.30;99.90;;;;;;4901657;29;20207;-86
2023/04/15 05:39:55;;;;;;;7.68;6.63;;;6.40;99.90;;;;;;4901903;29;20187;-86
2023/04/15 05:42:21;;;;;;;7.05;6.45;;;6.40;99.90;;;;;;4901652;29;20222;-86
2023/04/15 05:44:46;;;;;;;8.45;6.72;;;6.40;99.90;;;;;;4901756;29;20179;-86
2023/04/15 05:47:12;;;;;;;7.97;7.05;;;6.40;99.90;;;;;;4901438;29;20253;-86
2023/04/15 05:49:37;;;;;;;8.55;7.75;;;6.50;99.90;;;;;;4902388;29;20183;-86
2023/04/15 05:52:03;;;;;;;16.45;7.68;;;6.60;99.90;;;;;;4901981;29;20216;-86
2023/04/15 05:54:29;;;;;;;13.07;9.48;;;6.60;99.90;;;;;;4901481;29;20175;-86
2023/04/15 05:56:56;;;;;;;10.77;9.68;;;6.70;99.90;;;;;;4901638;29;20724;-86
2023/04/15 05:59:22;;;;;;;13.48;11.40;;;6.80;99.90;;;;;;4901701;29;20186;-86
2023/04/15 06:01:48;;;;;;;10.80;9.70;;;6.90;99.90;;;;;;4901517;29;20331;-86
2023/04/15 06:04:14;;;;;;;11.50;10.32;;;6.90;99.90;;;;;;4901584;29;20187;-86
2023/04/15 06:06:39;;;;;;;11.77;10.20;;;6.90;99.90;;;;;;4917986;29;20221;-86
2023/04/15 06:09:05;;;;;;;11.57;10.10;;;7.00;99.90;;;;;;4902085;29;20261;-86
2023/04/15 06:11:31;;;;;;;11.38;10.18;;;7.00;99.90;;;;;;4901304;29;20299;-86
2023/04/15 06:13:56;;;;;;;11.82;10.65;;;6.90;99.90;;;;;;4901091;29;20187;-86
2023/04/15 06:16:22;;;;;;;11.88;10.68;;;6.90;99.90;;;;;;4901076;29;20203;-86
2023/04/15 06:18:48;;;;;;;13.75;12.32;;;6.90;99.90;;;;;;4901860;29;20186;-86
2023/04/15 06:21:14;;;;;;;16.98;13.60;;;6.90;99.90;;;;;;4901326;29;20183;-86
2023/04/15 06:23:40;;;;;;;13.23;11.77;;;7.00;99.90;;;;;;4901195;29;20235;-86
2023/04/15 06:26:06;;;;;;;12.98;11.77;;;7.10;99.90;;;;;;4901039;29;20290;-86
2023/04/15 06:28:32;;;;;;;13.23;11.93;;;7.10;99.90;;;;;;4901751;29;20269;-86
2023/04/15 06:30:58;;;;;;;13.13;11.82;;;7.20;99.90;;;;;;4900847;29;20179;-86
2023/04/15 06:33:23;;;;;;;13.32;11.90;;;7.20;99.90;;;;;;4901037;29;20190;-86
2023/04/15 06:35:49;;;;;;;12.38;11.10;;;7.30;99.90;;;;;;4900775;29;20195;-86
2023/04/15 06:38:15;;;;;;;13.43;12.07;;;7.40;99.90;;;;;;4899190;29;20189;-86
2023/04/15 06:40:41;;;;;;;13.15;10.77;;;7.40;99.90;;;;;;4905159;29;20183;-86
2023/04/15 06:43:08;;;;;;;14.23;12.57;;;7.50;99.90;;;;;;4901074;29;20182;-86
2023/04/15 06:45:33;;;;;;;11.35;10.25;;;7.50;99.90;;;;;;4900829;29;20203;-86
2023/04/15 06:47:59;;;;;;;11.52;10.40;;;7.50;99.90;;;;;;4894751;29;20213;-86
2023/04/15 06:50:25;;;;;;;11.32;10.02;;;7.50;99.90;;;;;;4898836;29;20239;-86
2023/04/15 06:52:56;;;;;;;12.23;11.02;;;7.50;99.90;;;;;;4882875;29;20214;-86
2023/04/15 06:55:22;;;;;;;13.00;10.88;;;7.50;99.90;;;;;;4882593;29;20172;-86
2023/04/15 06:57:47;;;;;;;13.93;11.43;;;7.50;99.90;;;;;;4881755;29;20196;-86
2023/04/15 07:00:14;;;;;;;12.00;10.90;;;7.50;99.90;;;;;;4882221;29;20249;-86
2023/04/15 07:02:40;;;;;;;13.32;12.10;;;7.60;99.90;;;;;;4881674;29;20207;-88
2023/04/15 07:05:06;;;;;;;28.33;22.95;;;7.60;99.90;;;;;;4881924;29;20194;-86
2023/04/15 07:07:32;;;;;;;21.67;19.30;;;7.60;99.90;;;;;;4881508;29;20219;-87
2023/04/15 07:09:57;;;;;;;24.77;22.10;;;7.70;99.90;;;;;;4882273;29;20212;-86
2023/04/15 07:12:23;;;;;;;56.00;41.88;;;7.70;99.90;;;;;;4881728;29;20222;-86
2023/04/15 07:14:48;;;;;;;42.50;29.20;;;7.70;99.90;;;;;;4881645;29;20243;-86
2023/04/15 07:17:14;;;;;;;57.85;35.78;;;7.70;99.90;;;;;;4881711;29;20267;-86
2023/04/15 07:20:08;;;;;;;39.38;26.33;;;7.70;99.90;;;;;;4882021;29;20186;-87
2023/04/15 07:22:33;;;;;;;14.18;12.73;;;7.70;99.90;;;;;;4881670;29;20210;-87
2023/04/15 07:24:59;;;;;;;12.13;11.02;;;7.70;99.90;;;;;;4898196;29;20180;-87
2023/04/15 07:27:26;;;;;;;17.75;15.93;;;7.70;99.90;;;;;;4881696;29;20262;-87
2023/04/15 07:29:52;;;;;;;12.38;11.23;;;7.70;99.90;;;;;;4881947;29;20238;-88
2023/04/15 07:32:17;;;;;;;12.00;10.48;;;7.70;99.90;;;;;;4881708;29;20184;-85
2023/04/15 07:34:43;;;;;;;10.65;9.27;;;7.80;99.90;;;;;;4881881;29;20210;-86
2023/04/15 07:37:09;;;;;;;10.32;9.43;;;7.80;99.90;;;;;;4881447;29;20204;-87
2023/04/15 07:39:35;;;;;;;11.40;10.25;;;7.80;99.90;;;;;;4881683;29;20190;-87
2023/04/15 07:42:01;;;;;;;11.23;10.20;;;7.80;99.90;;;;;;4881330;29;20187;-87
2023/04/15 07:44:44;;;;;;;10.93;9.68;;;7.80;99.90;;;;;;4881289;29;20187;-87
2023/04/15 07:47:11;;;;;;;10.73;9.10;;;7.80;99.90;;;;;;4881766;29;20219;-85
2023/04/15 07:49:46;;;;;;;14.15;12.73;;;7.80;99.90;;;;;;4882909;29;20190;-85
2023/04/15 07:52:45;;;;;;;41.22;32.03;;;7.80;99.90;;;;;;4885443;29;20255;-86
2023/04/15 07:55:11;;;;;;;28.67;21.75;;;7.90;99.90;;;;;;4885470;29;20172;-86
2023/04/15 07:57:37;;;;;;;27.80;20.75;;;7.90;99.90;;;;;;4885630;29;20235;-85
2023/04/15 08:00:04;;;;;;;26.65;20.23;;;7.90;99.90;;;;;;4885720;29;20187;-86
2023/04/15 08:02:30;;;;;;;22.70;16.38;;;7.90;99.90;;;;;;4885047;29;20184;-86
2023/04/15 08:04:56;;;;;;;23.88;15.65;;;7.80;99.90;;;;;;4884963;29;20183;-86
2023/04/15 08:07:22;;;;;;;10.68;8.95;;;7.90;99.90;;;;;;4884694;29;20218;-86
2023/04/15 08:09:48;;;;;;;8.23;7.43;;;7.90;99.90;;;;;;4884978;29;20179;-86
2023/04/15 08:12:13;;;;;;;7.53;6.70;;;7.90;99.90;;;;;;4884777;29;20189;-86
2023/04/15 08:14:39;;;;;;;5.97;5.47;;;7.90;99.90;;;;;;4885242;29;20179;-86
2023/04/15 08:17:05;;;;;;;6.07;5.57;;;7.90;99.90;;;;;;4885444;29;20686;-86
2023/04/15 08:19:31;;;;;;;6.82;6.22;;;7.90;99.90;;;;;;4884885;29;20190;-86
2023/04/15 08:21:56;;;;;;;6.03;5.53;;;8.00;99.90;;;;;;4894385;29;20194;-86
2023/04/15 08:24:26;;;;;;;5.20;4.78;;;8.00;99.90;;;;;;4904918;29;20194;-87
2023/04/15 08:26:53;;;;;;;5.78;5.00;;;8.00;99.90;;;;;;4905128;29;20270;-86
2023/04/15 08:29:19;;;;;;;5.18;4.78;;;8.10;99.90;;;;;;4920838;29;20167;-87
2023/04/15 08:31:46;;;;;;;5.30;4.80;;;8.10;99.90;;;;;;4903592;29;20263;-87
2023/04/15 08:34:12;;;;;;;5.82;4.45;;;8.20;99.90;;;;;;4936195;29;20207;-87
2023/04/15 08:36:37;;;;;;;5.13;4.32;;;8.30;99.90;;;;;;4903649;29;20293;-87
2023/04/15 08:39:03;;;;;;;4.97;4.55;;;8.30;99.90;;;;;;4904145;29;20179;-86
2023/04/15 08:41:46;;;;;;;4.70;4.40;;;8.30;99.90;;;;;;4904146;29;20198;-85
2023/04/15 08:44:13;;;;;;;5.07;4.68;;;8.30;99.90;;;;;;4905254;29;20210;-85
2023/04/15 08:46:41;;;;;;;5.75;5.18;;;8.20;99.90;;;;;;4904465;29;20242;-85
2023/04/15 08:49:09;;;;;;;10.98;9.88;;;8.20;99.90;;;;;;4896466;29;20172;-84
2023/04/15 08:51:35;;;;;;;7.03;6.38;;;8.10;99.90;;;;;;4886656;29;20603;-83
2023/04/15 08:54:02;;;;;;;7.63;6.82;;;8.10;99.90;;;;;;4886891;29;20184;-85
2023/04/15 08:56:31;;;;;;;6.53;6.03;;;8.00;99.90;;;;;;4885412;29;20215;-85
2023/04/15 08:58:58;;;;;;;7.25;6.65;;;7.90;99.90;;;;;;4884212;29;20270;-88
2023/04/15 09:01:24;;;;;;;5.88;5.38;;;7.80;99.90;;;;;;4892574;29;20183;-89
2023/04/15 09:03:50;;;;;;;5.78;5.28;;;7.80;99.90;;;;;;4904247;29;20194;-89
2023/04/15 09:06:16;;;;;;;5.25;4.85;;;7.90;99.90;;;;;;4903237;29;20225;-89
2023/04/15 09:08:42;;;;;;;4.85;4.55;;;7.90;99.90;;;;;;4902995;29;20186;-86
2023/04/15 09:11:08;;;;;;;4.30;4.00;;;7.90;99.90;;;;;;4902913;29;20187;-89
2023/04/15 09:13:34;;;;;;;4.43;4.13;;;8.00;99.90;;;;;;4902984;29;20186;-89
2023/04/15 09:16:05;;;;;;;4.97;4.57;;;8.10;99.90;;;;;;4902313;29;20705;-89
2023/04/15 09:18:33;;;;;;;8.35;7.65;;;8.20;99.90;;;;;;4902662;29;20183;-89
2023/04/15 09:21:10;;;;;;;4.65;4.35;;;8.30;99.90;;;;;;4902518;29;20186;-87
2023/04/15 09:23:38;;;;;;;5.38;4.03;;;8.20;99.90;;;;;;4902658;29;20189;-88
2023/04/15 09:26:04;;;;;;;4.15;3.85;;;8.20;99.90;;;;;;4901556;29;20206;-87
2023/04/15 09:28:30;;;;;;;5.03;4.63;;;8.00;99.90;;;;;;4883693;29;20227;-87
2023/04/15 09:31:01;;;;;;;4.85;4.35;;;7.90;99.90;;;;;;4883669;29;20190;-87
2023/04/15 09:33:28;;;;;;;4.68;4.28;;;7.90;99.90;;;;;;4883643;29;20243;-87
2023/04/15 09:36:03;;;;;;;10.88;9.57;;;7.90;99.90;;;;;;4883557;29;20298;-87
2023/04/15 09:38:30;;;;;;;17.95;16.25;;;7.90;99.90;;;;;;4884128;29;20213;-88
2023/04/15 09:40:57;;;;;;;5.78;5.38;;;7.80;99.90;;;;;;4883999;29;20191;-87
2023/04/15 09:43:36;;;;;;;4.15;3.85;;;7.80;99.90;;;;;;4883539;29;20287;-88
2023/04/15 09:46:01;;;;;;;4.25;3.90;;;7.80;99.90;;;;;;4883676;29;20203;-86
2023/04/15 09:48:29;;;;;;;4.15;3.85;;;7.80;99.90;;;;;;4882983;29;20217;-88
2023/04/15 09:51:00;;;;;;;4.18;3.88;;;7.90;99.90;;;;;;4883959;29;20180;-87
2023/04/15 09:53:26;;;;;;;4.55;4.25;;;8.00;99.90;;;;;;4882853;29;20187;-87
2023/04/15 09:55:53;;;;;;;4.07;3.78;;;8.00;99.90;;;;;;4882994;29;20249;-88
2023/04/15 09:58:23;;;;;;;4.70;4.30;;;8.00;99.90;;;;;;4883866;29;20192;-87
2023/04/15 10:00:51;;;;;;;4.35;3.95;;;8.10;99.90;;;;;;4883009;29;20203;-89
2023/04/15 10:03:20;;;;;;;4.30;4.00;;;8.10;99.90;;;;;;4883640;29;20188;-89
2023/04/15 10:05:48;;;;;;;5.43;4.22;;;8.20;99.90;;;;;;4883397;29;20611;-89
2023/04/15 10:08:16;;;;;;;4.60;4.30;;;8.20;99.90;;;;;;4882617;29;20211;-89
2023/04/15 10:10:44;;;;;;;5.22;4.43;;;8.20;99.90;;;;;;4884467;29;20192;-89
2023/04/15 10:13:11;;;;;;;4.80;4.40;;;8.20;99.90;;;;;;4882951;29;20187;-89
2023/04/15 10:15:37;;;;;;;4.63;4.32;;;8.20;99.90;;;;;;4885372;29;20240;-88
2023/04/15 10:18:06;;;;;;;4.78;4.38;;;8.30;99.90;;;;;;4883505;29;20188;-89
2023/04/15 10:20:33;;;;;;;7.00;4.47;;;8.30;99.90;;;;;;4882302;29;20280;-90
2023/04/15 10:23:00;;;;;;;4.82;4.43;;;8.40;99.90;;;;;;4883050;29;20289;-87
2023/04/15 10:25:28;;;;;;;4.65;4.28;;;8.40;99.90;;;;;;4883121;29;20181;-89
2023/04/15 10:27:55;;;;;;;4.50;4.20;;;8.40;99.90;;;;;;4882229;29;20297;-88
2023/04/15 10:30:22;;;;;;;4.70;4.30;;;8.50;99.90;;;;;;4882644;29;20188;-88
2023/04/15 10:32:48;;;;;;;4.50;4.13;;;8.50;99.90;;;;;;4882437;29;20179;-88
2023/04/15 10:35:18;;;;;;;4.90;4.50;;;8.50;99.90;;;;;;4882244;29;20239;-89
2023/04/15 10:37:44;;;;;;;5.05;4.65;;;8.60;99.90;;;;;;4882057;29;20179;-88
2023/04/15 10:40:32;;;;;;;4.15;3.85;;;8.60;99.90;;;;;;4882436;29;20338;-88
2023/04/15 10:43:00;;;;;;;6.60;4.30;;;8.70;99.90;;;;;;4882748;29;20626;-89
2023/04/15 10:45:36;;;;;;;4.10;3.80;;;8.80;99.90;;;;;;4882122;29;20184;-89
2023/04/15 10:48:05;;;;;;;4.32;3.78;;;8.90;99.90;;;;;;4881934;29;20273;-89
2023/04/15 10:50:31;;;;;;;4.13;3.83;;;8.90;99.90;;;;;;4883642;29;20183;-87
2023/04/15 10:52:58;;;;;;;4.10;3.80;;;8.90;99.90;;;;;;4881814;29;20184;-87
2023/04/15 10:55:26;;;;;;;4.28;3.90;;;9.00;99.90;;;;;;4898607;29;20183;-87
2023/04/15 10:57:54;;;;;;;4.03;3.72;;;8.80;99.90;;;;;;4882110;29;20184;-86
2023/04/15 11:00:24;;;;;;;4.53;4.15;;;8.90;99.90;;;;;;4881727;29;20207;-87
2023/04/15 11:02:55;;;;;;;3.63;3.33;;;8.80;99.90;;;;;;4882076;29;20330;-86
2023/04/15 11:05:22;;;;;;;4.00;3.70;;;8.80;99.90;;;;;;4882019;29;20175;-87
2023/04/15 11:07:54;;;;;;;4.13;3.60;;;8.70;99.90;;;;;;4882023;29;20302;-86
2023/04/15 11:10:19;;;;;;;5.07;4.57;;;8.60;99.90;;;;;;4882492;29;20277;-86
2023/04/15 11:13:08;;;;;;;5.20;4.78;;;8.60;99.90;;;;;;4881946;29;20311;-87
2023/04/15 11:15:43;;;;;;;5.55;4.82;;;8.70;99.90;;;;;;4867840;29;20207;-87
2023/04/15 11:18:09;;;;;;;4.57;4.18;;;8.70;99.90;;;;;;4898814;29;20183;-86
2023/04/15 11:20:35;;;;;;;4.43;4.13;;;8.70;99.90;;;;;;4881561;29;20190;-87
2023/04/15 11:23:01;;;;;;;4.18;3.78;;;8.80;99.90;;;;;;4882035;29;20266;-87
2023/04/15 11:25:38;;;;;;;4.57;4.18;;;8.80;99.90;;;;;;4884784;29;20236;-87
2023/04/15 11:28:04;;;;;;;4.18;3.88;;;8.80;99.90;;;;;;4885865;29;20671;-87
2023/04/15 11:30:35;;;;;;;3.90;3.60;;;8.80;99.90;;;;;;4885945;29;20186;-86
2023/04/15 11:33:04;;;;;;;3.45;3.25;;;8.90;99.90;;;;;;4885510;29;20265;-87
2023/04/15 11:35:30;;;;;;;4.28;3.88;;;8.80;99.90;;;;;;4885421;29;20179;-87
2023/04/15 11:37:57;;;;;;;3.88;3.58;;;9.00;99.90;;;;;;4885730;29;20678;-86
2023/04/15 11:40:27;;;;;;;3.63;3.33;;;9.20;99.90;;;;;;4886180;29;20172;-86
2023/04/15 11:43:15;;;;;;;3.97;3.30;;;9.40;99.90;;;;;;4885167;29;20176;-89
2023/04/15 11:45:59;;;;;;;3.17;2.97;;;9.50;99.90;;;;;;4885662;29;20206;-87
2023/04/15 11:48:43;;;;;;;3.38;3.08;;;9.50;99.90;;;;;;4885009;29;20218;-87
2023/04/15 11:51:09;;;;;;;3.58;3.28;;;9.60;99.90;;;;;;4885491;29;20183;-83
2023/04/15 11:53:46;;;;;;;2.80;2.60;;;9.60;99.90;;;;;;4900225;29;20223;-86
2023/04/15 11:56:24;;;;;;;3.10;2.90;;;9.70;99.90;;;;;;4903580;29;20214;-87
2023/04/15 11:58:58;;;;;;;3.40;3.20;;;10.00;99.90;;;;;;4903987;29;20225;-86
2023/04/15 12:01:31;;;;;;;2.50;2.40;;;10.10;99.90;;;;;;4903684;29;20194;-87
2023/04/15 12:03:58;;;;;;;3.20;2.90;;;10.20;99.90;;;;;;4903573;29;20174;-85
2023/04/15 12:06:26;;;;;;;2.70;2.50;;;10.30;99.90;;;;;;4920424;29;20230;-86
2023/04/15 12:09:12;;;;;;;2.45;2.22;;;10.20;99.90;;;;;;4906095;29;20229;-86
2023/04/15 12:11:58;;;;;;;2.70;2.50;;;10.20;99.90;;;;;;4903289;29;20186;-87
2023/04/15 12:14:31;;;;;;;2.83;2.63;;;10.20;99.90;;;;;;4903239;29;20187;-87
2023/04/15 12:17:04;;;;;;;2.40;2.30;;;10.20;99.90;;;;;;4903555;29;20222;-86
2023/04/15 12:19:36;;;;;;;2.40;2.30;;;10.30;99.90;;;;;;4920328;29;20324;-86
2023/04/15 12:22:05;;;;;;;3.17;2.17;;;10.10;99.90;;;;;;4904219;29;20656;-86
2023/04/15 12:24:32;;;;;;;2.42;2.33;;;10.10;99.90;;;;;;4903256;29;20650;-86
2023/04/15 12:27:02;;;;;;;2.00;1.90;;;10.00;99.90;;;;;;4903733;29;20207;-85
2023/04/15 12:29:29;;;;;;;2.33;2.10;;;9.80;99.90;;;;;;4904116;29;20630;-85
2023/04/15 12:31:57;;;;;;;1.88;1.77;;;9.70;99.90;;;;;;4903452;29;20316;-87
2023/04/15 12:34:29;;;;;;;2.17;2.08;;;9.70;99.90;;;;;;4904019;29;20178;-85
2023/04/15 12:36:56;;;;;;;2.15;2.05;;;9.60;99.90;;;;;;4901723;29;20202;-86
2023/04/15 12:39:28;;;;;;;1.85;1.75;;;9.60;99.90;;;;;;4902924;29;20195;-86
2023/04/15 12:41:54;;;;;;;1.92;1.83;;;9.50;99.90;;;;;;4904373;29;20278;-87
2023/04/15 12:44:22;;;;;;;1.65;1.60;;;9.50;99.90;;;;;;4903128;29;20320;-86
2023/04/15 12:46:49;;;;;;;1.80;1.70;;;9.60;99.90;;;;;;4902987;29;20716;-87
2023/04/15 12:49:18;;;;;;;2.28;1.60;;;9.60;99.90;;;;;;4903088;29;20182;-87
2023/04/15 12:51:44;;;;;;;4.60;1.60;;;9.50;99.90;;;;;;4902669;29;20214;-86
2023/04/15 12:54:10;;;;;;;2.03;1.92;;;9.50;99.90;;;;;;4903003;29;20211;-84
2023/04/15 12:56:35;;;;;;;2.00;1.73;;;9.50;99.90;;;;;;4903210;29;20210;-85
2023/04/15 12:59:01;;;;;;;1.73;1.63;;;9.40;99.90;;;;;;4903015;29;20234;-87
2023/04/15 13:01:27;;;;;;;1.50;1.50;;;9.30;99.90;;;;;;4904038;29;20274;-87
2023/04/15 13:03:53;;;;;;;1.77;1.67;;;9.20;99.90;;;;;;4904941;29;20194;-87
2023/04/15 13:06:19;;;;;;;1.40;1.40;;;9.20;99.90;;;;;;4903834;29;20206;-88
2023/04/15 13:08:45;;;;;;;1.63;1.50;;;9.10;99.90;;;;;;4904809;29;20179;-88
2023/04/15 13:11:10;;;;;;;1.67;1.58;;;9.10;99.90;;;;;;4904901;29;20175;-88
2023/04/15 13:13:40;;;;;;;1.70;1.60;;;9.20;99.90;;;;;;4903580;29;20179;-90
2023/04/15 13:16:08;;;;;;;1.70;1.60;;;9.30;99.90;;;;;;4905194;29;20213;-89
2023/04/15 13:18:34;;;;;;;1.50;1.40;;;9.30;99.90;;;;;;4903656;29;20189;-87
2023/04/15 13:21:00;;;;;;;1.60;1.50;;;9.30;99.90;;;;;;4902401;29;20274;-88
2023/04/15 13:23:26;;;;;;;2.50;1.60;;;9.20;99.90;;;;;;4902493;29;20238;-89
2023/04/15 13:25:52;;;;;;;1.60;1.50;;;9.20;99.90;;;;;;4902314;29;20207;-87
2023/04/15 13:28:18;;;;;;;1.90;1.75;;;9.10;99.90;;;;;;4902492;29;20206;-86
2023/04/15 13:30:44;;;;;;;1.50;1.40;;;9.10;99.90;;;;;;4902798;29;20179;-87
2023/04/15 13:33:15;;;;;;;1.40;1.30;;;9.10;99.90;;;;;;4903332;29;20183;-87